sensor_id;sensor_type;location;lat;lon;timestamp;P1;durP1;ratioP1;P2;durP2;ratioP2
19687;SDS011;9993;52.008;4.732;2022-12-18T00:00:24;50.07;;;22.40;;
19687;SDS011;9993;52.008;4.732;2022-12-18T00:02:49;57.70;;;22.33;;
19687;SDS011;9993;52.008;4.732;2022-12-18T00:05:14;48.37;;;17.83;;
19687;SDS011;9993;52.008;4.732;2022-12-18T00:07:40;34.77;;;14.67;;
19687;SDS011;9993;52.008;4.732;2022-12-18T00:10:05;48.47;;;19.90;;
19687;SDS011;9993;52.008;4.732;2022-12-18T00:12:30;43.10;;;17.03;;
19687;SDS011;9993;52.008;4.732;2022-12-18T00:14:55;42.23;;;18.03;;
19687;SDS011;9993;52.008;4.732;2022-12-18T00:17:21;44.53;;;19.47;;
19687;SDS011;9993;52.008;4.732;2022-12-18T00:19:46;51.50;;;17.80;;
19687;SDS011;9993;52.008;4.732;2022-12-18T00:22:11;41.60;;;17.43;;
19687;SDS011;9993;52.008;4.732;2022-12-18T00:24:36;47.57;;;18.40;;
19687;SDS011;9993;52.008;4.732;2022-12-18T00:27:01;41.60;;;16.17;;
19687;SDS011;9993;52.008;4.732;2022-12-18T00:29:27;46.43;;;18.93;;
19687;SDS011;9993;52.008;4.732;2022-12-18T00:31:52;19.10;;;8.77;;
19687;SDS011;9993;52.008;4.732;2022-12-18T00:34:17;39.23;;;17.73;;
19687;SDS011;9993;52.008;4.732;2022-12-18T00:36:42;37.17;;;14.23;;
19687;SDS011;9993;52.008;4.732;2022-12-18T00:39:08;56.50;;;20.50;;
19687;SDS011;9993;52.008;4.732;2022-12-18T00:41:34;43.77;;;14.53;;
19687;SDS011;9993;52.008;4.732;2022-12-18T00:44:18;34.23;;;16.00;;
19687;SDS011;9993;52.008;4.732;2022-12-18T00:46:44;34.03;;;15.40;;
19687;SDS011;9993;52.008;4.732;2022-12-18T00:49:10;25.37;;;12.07;;
19687;SDS011;9993;52.008;4.732;2022-12-18T00:51:35;62.13;;;18.30;;
19687;SDS011;9993;52.008;4.732;2022-12-18T00:54:00;36.67;;;13.97;;
19687;SDS011;9993;52.008;4.732;2022-12-18T00:56:26;33.53;;;15.83;;
19687;SDS011;9993;52.008;4.732;2022-12-18T00:58:51;53.10;;;20.27;;
19687;SDS011;9993;52.008;4.732;2022-12-18T01:01:17;27.97;;;11.87;;
19687;SDS011;9993;52.008;4.732;2022-12-18T01:03:42;31.57;;;15.30;;
19687;SDS011;9993;52.008;4.732;2022-12-18T01:06:08;55.50;;;16.77;;
19687;SDS011;9993;52.008;4.732;2022-12-18T01:08:34;45.87;;;16.07;;
19687;SDS011;9993;52.008;4.732;2022-12-18T01:11:00;26.70;;;14.30;;
19687;SDS011;9993;52.008;4.732;2022-12-18T01:13:25;32.23;;;18.20;;
19687;SDS011;9993;52.008;4.732;2022-12-18T01:15:50;14.73;;;8.97;;
19687;SDS011;9993;52.008;4.732;2022-12-18T01:18:16;42.07;;;17.47;;
19687;SDS011;9993;52.008;4.732;2022-12-18T01:20:41;28.73;;;14.50;;
19687;SDS011;9993;52.008;4.732;2022-12-18T01:23:06;48.80;;;19.27;;
19687;SDS011;9993;52.008;4.732;2022-12-18T01:25:31;34.20;;;17.50;;
19687;SDS011;9993;52.008;4.732;2022-12-18T01:27:56;40.20;;;18.57;;
19687;SDS011;9993;52.008;4.732;2022-12-18T01:30:22;35.20;;;13.13;;
19687;SDS011;9993;52.008;4.732;2022-12-18T01:32:47;28.30;;;16.40;;
19687;SDS011;9993;52.008;4.732;2022-12-18T01:35:12;31.40;;;14.63;;
19687;SDS011;9993;52.008;4.732;2022-12-18T01:37:38;32.00;;;14.60;;
19687;SDS011;9993;52.008;4.732;2022-12-18T01:40:03;32.53;;;15.10;;
19687;SDS011;9993;52.008;4.732;2022-12-18T01:42:28;37.47;;;16.90;;
19687;SDS011;9993;52.008;4.732;2022-12-18T01:44:55;39.10;;;13.37;;
19687;SDS011;9993;52.008;4.732;2022-12-18T01:47:27;35.43;;;16.70;;
19687;SDS011;9993;52.008;4.732;2022-12-18T01:49:54;40.20;;;18.67;;
19687;SDS011;9993;52.008;4.732;2022-12-18T01:52:19;31.37;;;12.77;;
19687;SDS011;9993;52.008;4.732;2022-12-18T01:54:45;46.80;;;20.17;;
19687;SDS011;9993;52.008;4.732;2022-12-18T01:57:11;29.67;;;13.87;;
19687;SDS011;9993;52.008;4.732;2022-12-18T01:59:36;34.47;;;16.43;;
19687;SDS011;9993;52.008;4.732;2022-12-18T02:02:02;45.37;;;18.87;;
19687;SDS011;9993;52.008;4.732;2022-12-18T02:04:29;37.17;;;16.93;;
19687;SDS011;9993;52.008;4.732;2022-12-18T02:07:06;30.50;;;12.63;;
19687;SDS011;9993;52.008;4.732;2022-12-18T02:09:45;44.83;;;18.97;;
19687;SDS011;9993;52.008;4.732;2022-12-18T02:12:19;35.67;;;15.80;;
19687;SDS011;9993;52.008;4.732;2022-12-18T02:14:49;38.37;;;19.43;;
19687;SDS011;9993;52.008;4.732;2022-12-18T02:17:23;44.13;;;19.47;;
19687;SDS011;9993;52.008;4.732;2022-12-18T02:27:31;41.50;;;19.20;;
19687;SDS011;9993;52.008;4.732;2022-12-18T02:29:57;44.23;;;16.33;;
19687;SDS011;9993;52.008;4.732;2022-12-18T02:32:25;48.33;;;20.43;;
19687;SDS011;9993;52.008;4.732;2022-12-18T02:37:35;21.33;;;11.03;;
19687;SDS011;9993;52.008;4.732;2022-12-18T02:40:01;39.33;;;16.67;;
19687;SDS011;9993;52.008;4.732;2022-12-18T02:42:28;35.17;;;14.20;;
19687;SDS011;9993;52.008;4.732;2022-12-18T02:44:53;39.93;;;16.23;;
19687;SDS011;9993;52.008;4.732;2022-12-18T02:47:19;45.97;;;15.43;;
19687;SDS011;9993;52.008;4.732;2022-12-18T02:49:51;39.97;;;18.17;;
19687;SDS011;9993;52.008;4.732;2022-12-18T02:54:57;40.70;;;18.63;;
19687;SDS011;9993;52.008;4.732;2022-12-18T02:57:35;23.50;;;12.33;;
19687;SDS011;9993;52.008;4.732;2022-12-18T03:00:21;32.13;;;17.17;;
19687;SDS011;9993;52.008;4.732;2022-12-18T03:05:15;29.70;;;15.67;;
19687;SDS011;9993;52.008;4.732;2022-12-18T03:07:43;34.63;;;14.97;;
19687;SDS011;9993;52.008;4.732;2022-12-18T03:10:11;32.93;;;13.70;;
19687;SDS011;9993;52.008;4.732;2022-12-18T03:12:39;42.03;;;14.20;;
19687;SDS011;9993;52.008;4.732;2022-12-18T03:15:41;32.17;;;10.97;;
19687;SDS011;9993;52.008;4.732;2022-12-18T03:17:59;36.37;;;15.57;;
19687;SDS011;9993;52.008;4.732;2022-12-18T03:20:28;34.80;;;17.27;;
19687;SDS011;9993;52.008;4.732;2022-12-18T03:22:57;22.57;;;10.63;;
19687;SDS011;9993;52.008;4.732;2022-12-18T03:25:23;53.57;;;18.63;;
19687;SDS011;9993;52.008;4.732;2022-12-18T03:27:51;40.87;;;15.60;;
19687;SDS011;9993;52.008;4.732;2022-12-18T03:30:19;27.57;;;10.80;;
19687;SDS011;9993;52.008;4.732;2022-12-18T03:32:48;31.47;;;11.87;;
19687;SDS011;9993;52.008;4.732;2022-12-18T03:35:16;30.57;;;15.30;;
19687;SDS011;9993;52.008;4.732;2022-12-18T03:37:44;38.47;;;16.37;;
19687;SDS011;9993;52.008;4.732;2022-12-18T03:40:09;26.00;;;12.57;;
19687;SDS011;9993;52.008;4.732;2022-12-18T03:45:08;28.07;;;13.13;;
19687;SDS011;9993;52.008;4.732;2022-12-18T03:47:47;28.50;;;14.53;;
19687;SDS011;9993;52.008;4.732;2022-12-18T03:50:17;31.57;;;16.90;;
19687;SDS011;9993;52.008;4.732;2022-12-18T03:52:46;29.17;;;12.33;;
19687;SDS011;9993;52.008;4.732;2022-12-18T03:55:13;29.83;;;16.03;;
19687;SDS011;9993;52.008;4.732;2022-12-18T03:57:39;32.67;;;15.17;;
19687;SDS011;9993;52.008;4.732;2022-12-18T04:00:07;40.60;;;17.03;;
19687;SDS011;9993;52.008;4.732;2022-12-18T04:02:33;46.27;;;18.53;;
19687;SDS011;9993;52.008;4.732;2022-12-18T04:05:00;50.60;;;21.20;;
19687;SDS011;9993;52.008;4.732;2022-12-18T04:07:26;30.93;;;16.40;;
19687;SDS011;9993;52.008;4.732;2022-12-18T04:09:53;43.83;;;13.60;;
19687;SDS011;9993;52.008;4.732;2022-12-18T04:12:19;31.37;;;11.90;;
19687;SDS011;9993;52.008;4.732;2022-12-18T04:14:44;30.30;;;14.00;;
19687;SDS011;9993;52.008;4.732;2022-12-18T04:17:10;18.40;;;12.10;;
19687;SDS011;9993;52.008;4.732;2022-12-18T04:19:35;36.57;;;16.33;;
19687;SDS011;9993;52.008;4.732;2022-12-18T04:22:00;35.90;;;16.13;;
19687;SDS011;9993;52.008;4.732;2022-12-18T04:24:25;33.57;;;17.40;;
19687;SDS011;9993;52.008;4.732;2022-12-18T04:26:51;30.10;;;12.83;;
19687;SDS011;9993;52.008;4.732;2022-12-18T04:29:16;38.60;;;20.23;;
19687;SDS011;9993;52.008;4.732;2022-12-18T04:31:41;43.73;;;18.63;;
19687;SDS011;9993;52.008;4.732;2022-12-18T04:34:06;23.70;;;12.70;;
19687;SDS011;9993;52.008;4.732;2022-12-18T04:36:32;30.37;;;13.30;;
19687;SDS011;9993;52.008;4.732;2022-12-18T04:38:57;40.20;;;17.07;;
19687;SDS011;9993;52.008;4.732;2022-12-18T04:41:22;34.60;;;17.33;;
19687;SDS011;9993;52.008;4.732;2022-12-18T04:43:47;38.30;;;18.70;;
19687;SDS011;9993;52.008;4.732;2022-12-18T04:46:13;37.47;;;15.93;;
19687;SDS011;9993;52.008;4.732;2022-12-18T04:48:38;31.73;;;16.93;;
19687;SDS011;9993;52.008;4.732;2022-12-18T04:51:06;31.53;;;15.53;;
19687;SDS011;9993;52.008;4.732;2022-12-18T04:53:31;24.60;;;12.80;;
19687;SDS011;9993;52.008;4.732;2022-12-18T04:56:10;20.07;;;8.60;;
19687;SDS011;9993;52.008;4.732;2022-12-18T04:58:36;44.60;;;15.57;;
19687;SDS011;9993;52.008;4.732;2022-12-18T05:01:02;26.23;;;13.63;;
19687;SDS011;9993;52.008;4.732;2022-12-18T05:03:27;24.50;;;13.67;;
19687;SDS011;9993;52.008;4.732;2022-12-18T05:05:52;34.53;;;15.23;;
19687;SDS011;9993;52.008;4.732;2022-12-18T05:08:18;27.40;;;14.67;;
19687;SDS011;9993;52.008;4.732;2022-12-18T05:10:43;28.90;;;13.00;;
19687;SDS011;9993;52.008;4.732;2022-12-18T05:13:08;32.83;;;15.33;;
19687;SDS011;9993;52.008;4.732;2022-12-18T05:15:33;24.10;;;13.40;;
19687;SDS011;9993;52.008;4.732;2022-12-18T05:17:59;20.17;;;12.60;;
19687;SDS011;9993;52.008;4.732;2022-12-18T05:20:25;27.97;;;14.03;;
19687;SDS011;9993;52.008;4.732;2022-12-18T05:22:50;34.87;;;15.83;;
19687;SDS011;9993;52.008;4.732;2022-12-18T05:25:16;22.10;;;11.40;;
19687;SDS011;9993;52.008;4.732;2022-12-18T05:27:41;29.87;;;14.13;;
19687;SDS011;9993;52.008;4.732;2022-12-18T05:30:07;28.80;;;13.43;;
19687;SDS011;9993;52.008;4.732;2022-12-18T05:32:32;21.27;;;13.43;;
19687;SDS011;9993;52.008;4.732;2022-12-18T05:34:57;38.97;;;17.00;;
19687;SDS011;9993;52.008;4.732;2022-12-18T05:37:23;31.50;;;14.27;;
19687;SDS011;9993;52.008;4.732;2022-12-18T05:39:48;24.03;;;12.53;;
19687;SDS011;9993;52.008;4.732;2022-12-18T05:42:13;26.53;;;15.27;;
19687;SDS011;9993;52.008;4.732;2022-12-18T05:44:38;31.27;;;12.93;;
19687;SDS011;9993;52.008;4.732;2022-12-18T05:47:04;24.27;;;13.30;;
19687;SDS011;9993;52.008;4.732;2022-12-18T05:49:29;28.60;;;12.80;;
19687;SDS011;9993;52.008;4.732;2022-12-18T05:51:54;15.20;;;8.40;;
19687;SDS011;9993;52.008;4.732;2022-12-18T05:54:19;26.53;;;12.77;;
19687;SDS011;9993;52.008;4.732;2022-12-18T05:56:45;15.77;;;8.57;;
19687;SDS011;9993;52.008;4.732;2022-12-18T05:59:10;24.53;;;10.93;;
19687;SDS011;9993;52.008;4.732;2022-12-18T06:01:35;22.50;;;11.00;;
19687;SDS011;9993;52.008;4.732;2022-12-18T06:04:00;20.27;;;12.60;;
19687;SDS011;9993;52.008;4.732;2022-12-18T06:06:26;22.10;;;11.53;;
19687;SDS011;9993;52.008;4.732;2022-12-18T06:08:52;25.27;;;13.20;;
19687;SDS011;9993;52.008;4.732;2022-12-18T06:11:18;25.00;;;7.77;;
19687;SDS011;9993;52.008;4.732;2022-12-18T06:13:44;23.57;;;12.67;;
19687;SDS011;9993;52.008;4.732;2022-12-18T06:16:09;19.37;;;10.20;;
19687;SDS011;9993;52.008;4.732;2022-12-18T06:18:46;29.67;;;13.17;;
19687;SDS011;9993;52.008;4.732;2022-12-18T06:21:11;16.60;;;12.50;;
19687;SDS011;9993;52.008;4.732;2022-12-18T06:23:37;18.87;;;11.37;;
19687;SDS011;9993;52.008;4.732;2022-12-18T06:26:03;21.77;;;13.30;;
19687;SDS011;9993;52.008;4.732;2022-12-18T06:28:29;24.33;;;12.70;;
19687;SDS011;9993;52.008;4.732;2022-12-18T06:30:54;26.90;;;11.13;;
19687;SDS011;9993;52.008;4.732;2022-12-18T06:33:19;19.90;;;10.73;;
19687;SDS011;9993;52.008;4.732;2022-12-18T06:35:44;15.03;;;9.03;;
19687;SDS011;9993;52.008;4.732;2022-12-18T06:38:10;12.67;;;9.70;;
19687;SDS011;9993;52.008;4.732;2022-12-18T06:40:36;25.73;;;14.43;;
19687;SDS011;9993;52.008;4.732;2022-12-18T06:43:01;6.40;;;5.87;;
19687;SDS011;9993;52.008;4.732;2022-12-18T06:45:27;13.73;;;9.33;;
19687;SDS011;9993;52.008;4.732;2022-12-18T06:47:52;18.80;;;10.53;;
19687;SDS011;9993;52.008;4.732;2022-12-18T06:50:17;15.13;;;8.47;;
19687;SDS011;9993;52.008;4.732;2022-12-18T06:52:42;9.53;;;7.53;;
19687;SDS011;9993;52.008;4.732;2022-12-18T06:55:09;21.93;;;9.87;;
19687;SDS011;9993;52.008;4.732;2022-12-18T06:57:34;24.10;;;10.93;;
19687;SDS011;9993;52.008;4.732;2022-12-18T06:59:59;15.33;;;6.27;;
19687;SDS011;9993;52.008;4.732;2022-12-18T07:02:25;17.50;;;11.43;;
19687;SDS011;9993;52.008;4.732;2022-12-18T07:04:50;14.57;;;8.77;;
19687;SDS011;9993;52.008;4.732;2022-12-18T07:07:15;15.00;;;11.13;;
19687;SDS011;9993;52.008;4.732;2022-12-18T07:09:40;15.87;;;10.33;;
19687;SDS011;9993;52.008;4.732;2022-12-18T07:12:05;8.77;;;6.60;;
19687;SDS011;9993;52.008;4.732;2022-12-18T07:14:32;13.93;;;10.97;;
19687;SDS011;9993;52.008;4.732;2022-12-18T07:16:58;14.60;;;9.90;;
19687;SDS011;9993;52.008;4.732;2022-12-18T07:19:23;17.33;;;10.90;;
19687;SDS011;9993;52.008;4.732;2022-12-18T07:21:57;13.33;;;8.50;;
19687;SDS011;9993;52.008;4.732;2022-12-18T07:24:22;23.73;;;14.20;;
19687;SDS011;9993;52.008;4.732;2022-12-18T07:26:49;18.90;;;9.93;;
19687;SDS011;9993;52.008;4.732;2022-12-18T07:29:15;8.77;;;7.60;;
19687;SDS011;9993;52.008;4.732;2022-12-18T07:31:40;21.50;;;12.87;;
19687;SDS011;9993;52.008;4.732;2022-12-18T07:34:09;14.30;;;6.73;;
19687;SDS011;9993;52.008;4.732;2022-12-18T07:36:34;5.60;;;4.70;;
19687;SDS011;9993;52.008;4.732;2022-12-18T07:38:59;23.70;;;12.47;;
19687;SDS011;9993;52.008;4.732;2022-12-18T07:41:24;15.77;;;8.30;;
19687;SDS011;9993;52.008;4.732;2022-12-18T07:43:49;24.77;;;14.77;;
19687;SDS011;9993;52.008;4.732;2022-12-18T07:46:15;15.93;;;13.67;;
19687;SDS011;9993;52.008;4.732;2022-12-18T07:48:49;10.27;;;6.57;;
19687;SDS011;9993;52.008;4.732;2022-12-18T07:51:20;9.37;;;7.47;;
19687;SDS011;9993;52.008;4.732;2022-12-18T07:53:57;23.77;;;15.40;;
19687;SDS011;9993;52.008;4.732;2022-12-18T07:56:35;28.20;;;13.23;;
19687;SDS011;9993;52.008;4.732;2022-12-18T07:59:03;18.40;;;8.90;;
19687;SDS011;9993;52.008;4.732;2022-12-18T08:01:28;14.10;;;9.27;;
19687;SDS011;9993;52.008;4.732;2022-12-18T08:03:53;16.63;;;9.27;;
19687;SDS011;9993;52.008;4.732;2022-12-18T08:06:21;11.40;;;9.57;;
19687;SDS011;9993;52.008;4.732;2022-12-18T08:08:56;6.27;;;5.70;;
19687;SDS011;9993;52.008;4.732;2022-12-18T08:11:22;28.73;;;13.30;;
19687;SDS011;9993;52.008;4.732;2022-12-18T08:13:47;13.23;;;7.17;;
19687;SDS011;9993;52.008;4.732;2022-12-18T08:16:13;10.10;;;6.60;;
19687;SDS011;9993;52.008;4.732;2022-12-18T08:18:38;13.27;;;8.17;;
19687;SDS011;9993;52.008;4.732;2022-12-18T08:23:35;14.63;;;9.17;;
19687;SDS011;9993;52.008;4.732;2022-12-18T08:26:07;15.40;;;9.63;;
19687;SDS011;9993;52.008;4.732;2022-12-18T08:28:32;3.20;;;2.97;;
19687;SDS011;9993;52.008;4.732;2022-12-18T08:31:00;16.73;;;13.03;;
19687;SDS011;9993;52.008;4.732;2022-12-18T08:33:26;15.50;;;10.93;;
19687;SDS011;9993;52.008;4.732;2022-12-18T08:35:51;8.77;;;6.33;;
19687;SDS011;9993;52.008;4.732;2022-12-18T08:38:17;14.47;;;8.83;;
19687;SDS011;9993;52.008;4.732;2022-12-18T08:40:45;25.30;;;13.03;;
19687;SDS011;9993;52.008;4.732;2022-12-18T08:43:10;20.73;;;12.93;;
19687;SDS011;9993;52.008;4.732;2022-12-18T08:45:54;23.83;;;12.20;;
19687;SDS011;9993;52.008;4.732;2022-12-18T08:48:19;17.57;;;10.97;;
19687;SDS011;9993;52.008;4.732;2022-12-18T08:50:53;17.17;;;11.77;;
19687;SDS011;9993;52.008;4.732;2022-12-18T08:53:18;16.73;;;9.77;;
19687;SDS011;9993;52.008;4.732;2022-12-18T08:55:43;17.37;;;12.10;;
19687;SDS011;9993;52.008;4.732;2022-12-18T08:58:09;19.23;;;11.40;;
19687;SDS011;9993;52.008;4.732;2022-12-18T09:00:40;16.70;;;12.10;;
19687;SDS011;9993;52.008;4.732;2022-12-18T09:03:18;23.47;;;13.83;;
19687;SDS011;9993;52.008;4.732;2022-12-18T09:05:45;23.77;;;12.77;;
19687;SDS011;9993;52.008;4.732;2022-12-18T09:08:10;13.80;;;11.23;;
19687;SDS011;9993;52.008;4.732;2022-12-18T09:10:45;17.73;;;11.77;;
19687;SDS011;9993;52.008;4.732;2022-12-18T09:13:11;14.20;;;10.07;;
19687;SDS011;9993;52.008;4.732;2022-12-18T09:15:40;19.03;;;11.23;;
19687;SDS011;9993;52.008;4.732;2022-12-18T09:18:05;16.10;;;12.37;;
19687;SDS011;9993;52.008;4.732;2022-12-18T09:20:31;19.30;;;13.20;;
19687;SDS011;9993;52.008;4.732;2022-12-18T09:22:56;16.87;;;11.17;;
19687;SDS011;9993;52.008;4.732;2022-12-18T09:25:21;17.50;;;9.83;;
19687;SDS011;9993;52.008;4.732;2022-12-18T09:27:46;23.63;;;12.03;;
19687;SDS011;9993;52.008;4.732;2022-12-18T09:30:12;12.50;;;9.33;;
19687;SDS011;9993;52.008;4.732;2022-12-18T09:32:37;17.67;;;13.33;;
19687;SDS011;9993;52.008;4.732;2022-12-18T09:35:02;13.73;;;9.63;;
19687;SDS011;9993;52.008;4.732;2022-12-18T09:37:28;26.13;;;16.37;;
19687;SDS011;9993;52.008;4.732;2022-12-18T09:39:53;15.20;;;10.13;;
19687;SDS011;9993;52.008;4.732;2022-12-18T09:42:21;14.60;;;11.60;;
19687;SDS011;9993;52.008;4.732;2022-12-18T09:44:49;18.57;;;11.60;;
19687;SDS011;9993;52.008;4.732;2022-12-18T09:47:37;18.53;;;10.30;;
19687;SDS011;9993;52.008;4.732;2022-12-18T09:50:04;19.00;;;11.33;;
19687;SDS011;9993;52.008;4.732;2022-12-18T09:52:33;26.17;;;16.07;;
19687;SDS011;9993;52.008;4.732;2022-12-18T09:57:24;21.60;;;12.37;;
19687;SDS011;9993;52.008;4.732;2022-12-18T09:59:55;20.67;;;13.57;;
19687;SDS011;9993;52.008;4.732;2022-12-18T10:02:22;25.77;;;14.37;;
19687;SDS011;9993;52.008;4.732;2022-12-18T10:05:05;25.07;;;13.77;;
19687;SDS011;9993;52.008;4.732;2022-12-18T10:07:45;11.83;;;8.40;;
19687;SDS011;9993;52.008;4.732;2022-12-18T10:10:19;12.87;;;10.47;;
19687;SDS011;9993;52.008;4.732;2022-12-18T10:12:51;14.60;;;9.53;;
19687;SDS011;9993;52.008;4.732;2022-12-18T10:15:24;26.17;;;12.00;;
19687;SDS011;9993;52.008;4.732;2022-12-18T10:20:47;16.57;;;10.80;;
19687;SDS011;9993;52.008;4.732;2022-12-18T10:23:17;20.77;;;12.30;;
19687;SDS011;9993;52.008;4.732;2022-12-18T10:25:50;25.23;;;12.50;;
19687;SDS011;9993;52.008;4.732;2022-12-18T10:28:17;13.13;;;8.33;;
19687;SDS011;9993;52.008;4.732;2022-12-18T10:30:43;21.67;;;11.10;;
19687;SDS011;9993;52.008;4.732;2022-12-18T10:33:16;25.10;;;14.00;;
19687;SDS011;9993;52.008;4.732;2022-12-18T10:35:41;22.77;;;13.63;;
19687;SDS011;9993;52.008;4.732;2022-12-18T10:40:47;11.13;;;7.03;;
19687;SDS011;9993;52.008;4.732;2022-12-18T10:43:15;19.80;;;11.60;;
19687;SDS011;9993;52.008;4.732;2022-12-18T10:45:41;24.70;;;13.13;;
19687;SDS011;9993;52.008;4.732;2022-12-18T10:48:19;25.03;;;13.07;;
19687;SDS011;9993;52.008;4.732;2022-12-18T10:50:46;26.80;;;16.17;;
19687;SDS011;9993;52.008;4.732;2022-12-18T10:53:13;23.30;;;13.40;;
19687;SDS011;9993;52.008;4.732;2022-12-18T10:55:41;28.63;;;14.90;;
19687;SDS011;9993;52.008;4.732;2022-12-18T10:58:23;23.93;;;15.03;;
19687;SDS011;9993;52.008;4.732;2022-12-18T11:01:01;26.90;;;13.80;;
19687;SDS011;9993;52.008;4.732;2022-12-18T11:04:13;23.90;;;11.83;;
19687;SDS011;9993;52.008;4.732;2022-12-18T11:08:38;19.07;;;12.17;;
19687;SDS011;9993;52.008;4.732;2022-12-18T11:11:04;22.40;;;14.23;;
19687;SDS011;9993;52.008;4.732;2022-12-18T11:13:32;24.83;;;14.40;;
19687;SDS011;9993;52.008;4.732;2022-12-18T11:15:57;23.13;;;13.07;;
19687;SDS011;9993;52.008;4.732;2022-12-18T11:18:30;22.53;;;14.40;;
19687;SDS011;9993;52.008;4.732;2022-12-18T11:20:59;25.47;;;14.83;;
19687;SDS011;9993;52.008;4.732;2022-12-18T11:23:25;23.60;;;14.37;;
19687;SDS011;9993;52.008;4.732;2022-12-18T11:25:52;20.40;;;13.37;;
19687;SDS011;9993;52.008;4.732;2022-12-18T11:31:08;21.77;;;12.20;;
19687;SDS011;9993;52.008;4.732;2022-12-18T11:33:34;23.70;;;14.07;;
19687;SDS011;9993;52.008;4.732;2022-12-18T11:36:00;21.40;;;14.00;;
19687;SDS011;9993;52.008;4.732;2022-12-18T11:38:31;26.07;;;14.13;;
19687;SDS011;9993;52.008;4.732;2022-12-18T11:43:54;18.67;;;12.43;;
19687;SDS011;9993;52.008;4.732;2022-12-18T11:49:34;18.07;;;11.30;;
19687;SDS011;9993;52.008;4.732;2022-12-18T11:54:53;9.00;;;8.03;;
19687;SDS011;9993;52.008;4.732;2022-12-18T12:07:47;16.13;;;9.80;;
19687;SDS011;9993;52.008;4.732;2022-12-18T12:11:03;17.97;;;11.67;;
19687;SDS011;9993;52.008;4.732;2022-12-18T12:23:29;18.40;;;10.57;;
19687;SDS011;9993;52.008;4.732;2022-12-18T12:26:02;18.87;;;11.27;;
19687;SDS011;9993;52.008;4.732;2022-12-18T12:28:37;19.83;;;12.03;;
19687;SDS011;9993;52.008;4.732;2022-12-18T12:31:13;20.67;;;11.63;;
19687;SDS011;9993;52.008;4.732;2022-12-18T12:38:57;16.47;;;12.17;;
19687;SDS011;9993;52.008;4.732;2022-12-18T12:41:26;15.93;;;9.27;;
19687;SDS011;9993;52.008;4.732;2022-12-18T12:47:16;23.03;;;11.47;;
19687;SDS011;9993;52.008;4.732;2022-12-18T12:49:55;18.50;;;11.43;;
19687;SDS011;9993;52.008;4.732;2022-12-18T12:52:27;15.23;;;10.43;;
19687;SDS011;9993;52.008;4.732;2022-12-18T12:55:03;19.60;;;12.03;;
19687;SDS011;9993;52.008;4.732;2022-12-18T13:00:16;24.73;;;15.00;;
19687;SDS011;9993;52.008;4.732;2022-12-18T13:05:51;21.80;;;11.97;;
19687;SDS011;9993;52.008;4.732;2022-12-18T13:08:25;19.47;;;13.57;;
19687;SDS011;9993;52.008;4.732;2022-12-18T13:10:51;23.50;;;12.93;;
19687;SDS011;9993;52.008;4.732;2022-12-18T13:16:28;21.37;;;11.50;;
19687;SDS011;9993;52.008;4.732;2022-12-18T13:18:54;16.63;;;12.27;;
19687;SDS011;9993;52.008;4.732;2022-12-18T13:21:32;20.90;;;10.80;;
19687;SDS011;9993;52.008;4.732;2022-12-18T13:24:14;18.93;;;11.63;;
19687;SDS011;9993;52.008;4.732;2022-12-18T13:26:45;25.23;;;12.87;;
19687;SDS011;9993;52.008;4.732;2022-12-18T13:29:10;18.93;;;11.87;;
19687;SDS011;9993;52.008;4.732;2022-12-18T13:34:29;20.47;;;13.37;;
19687;SDS011;9993;52.008;4.732;2022-12-18T13:39:58;21.47;;;12.33;;
19687;SDS011;9993;52.008;4.732;2022-12-18T13:42:37;23.30;;;12.50;;
19687;SDS011;9993;52.008;4.732;2022-12-18T13:45:37;22.27;;;12.63;;
19687;SDS011;9993;52.008;4.732;2022-12-18T13:48:05;21.93;;;12.47;;
19687;SDS011;9993;52.008;4.732;2022-12-18T13:50:37;14.50;;;9.40;;
19687;SDS011;9993;52.008;4.732;2022-12-18T13:53:04;22.93;;;14.27;;
19687;SDS011;9993;52.008;4.732;2022-12-18T13:55:30;22.17;;;11.13;;
19687;SDS011;9993;52.008;4.732;2022-12-18T13:58:04;21.33;;;12.30;;
19687;SDS011;9993;52.008;4.732;2022-12-18T14:00:30;22.17;;;12.80;;
19687;SDS011;9993;52.008;4.732;2022-12-18T14:02:56;21.17;;;12.63;;
19687;SDS011;9993;52.008;4.732;2022-12-18T14:05:22;18.27;;;12.30;;
19687;SDS011;9993;52.008;4.732;2022-12-18T14:07:48;15.57;;;9.53;;
19687;SDS011;9993;52.008;4.732;2022-12-18T14:10:13;22.07;;;13.27;;
19687;SDS011;9993;52.008;4.732;2022-12-18T14:12:55;17.90;;;11.83;;
19687;SDS011;9993;52.008;4.732;2022-12-18T14:17:58;22.23;;;14.50;;
19687;SDS011;9993;52.008;4.732;2022-12-18T14:20:24;20.43;;;12.27;;
19687;SDS011;9993;52.008;4.732;2022-12-18T14:22:50;22.30;;;12.73;;
19687;SDS011;9993;52.008;4.732;2022-12-18T14:25:22;14.90;;;8.63;;
19687;SDS011;9993;52.008;4.732;2022-12-18T14:27:52;24.43;;;13.50;;
19687;SDS011;9993;52.008;4.732;2022-12-18T14:30:32;19.83;;;11.80;;
19687;SDS011;9993;52.008;4.732;2022-12-18T14:33:03;16.63;;;11.27;;
19687;SDS011;9993;52.008;4.732;2022-12-18T14:35:29;19.10;;;11.13;;
19687;SDS011;9993;52.008;4.732;2022-12-18T14:52:06;21.77;;;11.30;;
19687;SDS011;9993;52.008;4.732;2022-12-18T14:54:31;20.83;;;11.60;;
19687;SDS011;9993;52.008;4.732;2022-12-18T14:57:03;17.13;;;11.17;;
19687;SDS011;9993;52.008;4.732;2022-12-18T14:59:51;12.50;;;9.10;;
19687;SDS011;9993;52.008;4.732;2022-12-18T15:07:39;11.80;;;7.83;;
19687;SDS011;9993;52.008;4.732;2022-12-18T15:21:19;12.87;;;8.40;;
19687;SDS011;9993;52.008;4.732;2022-12-18T15:23:50;18.07;;;9.40;;
19687;SDS011;9993;52.008;4.732;2022-12-18T15:26:17;6.77;;;5.83;;
19687;SDS011;9993;52.008;4.732;2022-12-18T15:28:55;17.40;;;12.57;;
19687;SDS011;9993;52.008;4.732;2022-12-18T15:36:17;19.40;;;12.43;;
19687;SDS011;9993;52.008;4.732;2022-12-18T15:38:46;24.77;;;12.80;;
19687;SDS011;9993;52.008;4.732;2022-12-18T15:41:15;17.83;;;10.67;;
19687;SDS011;9993;52.008;4.732;2022-12-18T15:43:40;17.40;;;9.33;;
19687;SDS011;9993;52.008;4.732;2022-12-18T15:46:08;19.50;;;12.60;;
19687;SDS011;9993;52.008;4.732;2022-12-18T15:58:54;23.43;;;12.93;;
19687;SDS011;9993;52.008;4.732;2022-12-18T16:01:20;17.67;;;11.47;;
19687;SDS011;9993;52.008;4.732;2022-12-18T16:06:12;24.07;;;15.50;;
19687;SDS011;9993;52.008;4.732;2022-12-18T16:08:38;17.40;;;8.80;;
19687;SDS011;9993;52.008;4.732;2022-12-18T16:11:16;19.83;;;11.43;;
19687;SDS011;9993;52.008;4.732;2022-12-18T16:13:44;22.87;;;12.90;;
19687;SDS011;9993;52.008;4.732;2022-12-18T16:16:10;13.43;;;10.33;;
19687;SDS011;9993;52.008;4.732;2022-12-18T16:18:35;17.20;;;12.40;;
19687;SDS011;9993;52.008;4.732;2022-12-18T16:21:00;19.50;;;12.57;;
19687;SDS011;9993;52.008;4.732;2022-12-18T16:31:59;22.40;;;13.77;;
19687;SDS011;9993;52.008;4.732;2022-12-18T16:34:28;19.77;;;12.20;;
19687;SDS011;9993;52.008;4.732;2022-12-18T16:37:05;9.77;;;7.63;;
19687;SDS011;9993;52.008;4.732;2022-12-18T16:39:30;22.43;;;13.03;;
19687;SDS011;9993;52.008;4.732;2022-12-18T16:41:57;16.57;;;10.23;;
19687;SDS011;9993;52.008;4.732;2022-12-18T16:44:22;19.63;;;11.93;;
19687;SDS011;9993;52.008;4.732;2022-12-18T16:46:47;18.60;;;12.20;;
19687;SDS011;9993;52.008;4.732;2022-12-18T16:49:16;18.23;;;12.13;;
19687;SDS011;9993;52.008;4.732;2022-12-18T16:51:46;13.43;;;9.37;;
19687;SDS011;9993;52.008;4.732;2022-12-18T16:54:12;18.20;;;11.30;;
19687;SDS011;9993;52.008;4.732;2022-12-18T16:56:37;22.13;;;13.83;;
19687;SDS011;9993;52.008;4.732;2022-12-18T17:02:10;10.60;;;7.47;;
19687;SDS011;9993;52.008;4.732;2022-12-18T17:04:42;14.67;;;10.37;;
19687;SDS011;9993;52.008;4.732;2022-12-18T17:07:08;19.90;;;11.17;;
19687;SDS011;9993;52.008;4.732;2022-12-18T17:09:36;16.03;;;10.00;;
19687;SDS011;9993;52.008;4.732;2022-12-18T17:12:03;22.40;;;13.03;;